sensor_id;sensor_type;location;lat;lon;timestamp;P1;durP1;ratioP1;P2;durP2;ratioP2
20084;SDS011;10202;48.474;9.138;2023-03-17T00:00:40;18.65;;;9.27;;
20084;SDS011;10202;48.474;9.138;2023-03-17T00:03:10;13.55;;;6.00;;
20084;SDS011;10202;48.474;9.138;2023-03-17T00:05:53;5.97;;;3.78;;
20084;SDS011;10202;48.474;9.138;2023-03-17T00:08:23;4.55;;;3.50;;
20084;SDS011;10202;48.474;9.138;2023-03-17T00:10:57;4.25;;;3.60;;
20084;SDS011;10202;48.474;9.138;2023-03-17T00:13:25;8.40;;;4.10;;
20084;SDS011;10202;48.474;9.138;2023-03-17T00:15:54;5.57;;;3.78;;
20084;SDS011;10202;48.474;9.138;2023-03-17T00:18:25;8.48;;;3.95;;
20084;SDS011;10202;48.474;9.138;2023-03-17T00:20:51;5.75;;;4.28;;
20084;SDS011;10202;48.474;9.138;2023-03-17T00:23:22;6.80;;;4.17;;
20084;SDS011;10202;48.474;9.138;2023-03-17T00:25:55;5.53;;;3.88;;
20084;SDS011;10202;48.474;9.138;2023-03-17T00:28:22;6.35;;;3.60;;
20084;SDS011;10202;48.474;9.138;2023-03-17T00:30:51;7.13;;;3.80;;
20084;SDS011;10202;48.474;9.138;2023-03-17T00:33:30;5.75;;;3.40;;
20084;SDS011;10202;48.474;9.138;2023-03-17T00:36:03;7.43;;;4.00;;
20084;SDS011;10202;48.474;9.138;2023-03-17T00:38:31;6.35;;;3.65;;
20084;SDS011;10202;48.474;9.138;2023-03-17T00:41:00;5.30;;;2.83;;
20084;SDS011;10202;48.474;9.138;2023-03-17T00:43:28;6.03;;;3.80;;
20084;SDS011;10202;48.474;9.138;2023-03-17T00:45:56;6.95;;;4.70;;
20084;SDS011;10202;48.474;9.138;2023-03-17T00:48:24;7.90;;;4.60;;
20084;SDS011;10202;48.474;9.138;2023-03-17T00:50:49;9.33;;;5.10;;
20084;SDS011;10202;48.474;9.138;2023-03-17T00:53:21;6.33;;;4.90;;
20084;SDS011;10202;48.474;9.138;2023-03-17T00:55:49;8.88;;;5.80;;
20084;SDS011;10202;48.474;9.138;2023-03-17T01:00:48;9.60;;;4.50;;
20084;SDS011;10202;48.474;9.138;2023-03-17T01:03:14;7.88;;;4.07;;
20084;SDS011;10202;48.474;9.138;2023-03-17T01:05:42;8.30;;;4.70;;
20084;SDS011;10202;48.474;9.138;2023-03-17T01:08:07;9.77;;;4.65;;
20084;SDS011;10202;48.474;9.138;2023-03-17T01:10:34;6.43;;;4.40;;
20084;SDS011;10202;48.474;9.138;2023-03-17T01:13:00;6.38;;;4.75;;
20084;SDS011;10202;48.474;9.138;2023-03-17T01:15:27;7.20;;;4.60;;
20084;SDS011;10202;48.474;9.138;2023-03-17T01:17:56;6.33;;;4.20;;
20084;SDS011;10202;48.474;9.138;2023-03-17T01:20:32;7.30;;;5.00;;
20084;SDS011;10202;48.474;9.138;2023-03-17T01:23:00;8.00;;;4.77;;
20084;SDS011;10202;48.474;9.138;2023-03-17T01:25:29;6.77;;;4.60;;
20084;SDS011;10202;48.474;9.138;2023-03-17T01:27:57;8.27;;;3.78;;
20084;SDS011;10202;48.474;9.138;2023-03-17T01:30:33;6.07;;;3.97;;
20084;SDS011;10202;48.474;9.138;2023-03-17T01:33:05;5.50;;;3.83;;
20084;SDS011;10202;48.474;9.138;2023-03-17T01:35:36;7.03;;;3.93;;
20084;SDS011;10202;48.474;9.138;2023-03-17T01:38:05;6.97;;;4.10;;
20084;SDS011;10202;48.474;9.138;2023-03-17T01:40:41;11.30;;;4.63;;
20084;SDS011;10202;48.474;9.138;2023-03-17T01:43:21;7.53;;;4.20;;
20084;SDS011;10202;48.474;9.138;2023-03-17T01:51:45;5.13;;;3.73;;
20084;SDS011;10202;48.474;9.138;2023-03-17T01:54:21;5.43;;;3.70;;
20084;SDS011;10202;48.474;9.138;2023-03-17T01:56:52;5.80;;;4.30;;
20084;SDS011;10202;48.474;9.138;2023-03-17T01:59:25;8.03;;;4.87;;
20084;SDS011;10202;48.474;9.138;2023-03-17T02:01:57;10.20;;;4.97;;
20084;SDS011;10202;48.474;9.138;2023-03-17T02:04:29;7.80;;;4.63;;
20084;SDS011;10202;48.474;9.138;2023-03-17T02:06:55;6.83;;;4.40;;
20084;SDS011;10202;48.474;9.138;2023-03-17T02:09:21;7.00;;;4.30;;
20084;SDS011;10202;48.474;9.138;2023-03-17T02:11:49;9.60;;;4.60;;
20084;SDS011;10202;48.474;9.138;2023-03-17T02:14:17;5.40;;;4.30;;
20084;SDS011;10202;48.474;9.138;2023-03-17T02:16:49;6.07;;;3.97;;
20084;SDS011;10202;48.474;9.138;2023-03-17T02:19:15;7.17;;;4.07;;
20084;SDS011;10202;48.474;9.138;2023-03-17T02:24:15;6.00;;;3.50;;
20084;SDS011;10202;48.474;9.138;2023-03-17T02:26:51;5.10;;;3.20;;
20084;SDS011;10202;48.474;9.138;2023-03-17T02:29:22;4.57;;;3.00;;
20084;SDS011;10202;48.474;9.138;2023-03-17T02:31:51;4.77;;;3.47;;
20084;SDS011;10202;48.474;9.138;2023-03-17T02:34:17;4.70;;;3.17;;
20084;SDS011;10202;48.474;9.138;2023-03-17T02:36:46;6.23;;;3.27;;
20084;SDS011;10202;48.474;9.138;2023-03-17T02:39:13;5.90;;;3.30;;
20084;SDS011;10202;48.474;9.138;2023-03-17T02:41:41;3.90;;;2.90;;
20084;SDS011;10202;48.474;9.138;2023-03-17T02:44:07;5.17;;;3.53;;
20084;SDS011;10202;48.474;9.138;2023-03-17T02:46:37;7.30;;;3.90;;
20084;SDS011;10202;48.474;9.138;2023-03-17T02:49:05;6.37;;;3.67;;
20084;SDS011;10202;48.474;9.138;2023-03-17T02:51:31;5.17;;;3.93;;
20084;SDS011;10202;48.474;9.138;2023-03-17T02:54:01;6.73;;;4.13;;
20084;SDS011;10202;48.474;9.138;2023-03-17T02:56:32;5.43;;;3.73;;
20084;SDS011;10202;48.474;9.138;2023-03-17T02:58:58;7.10;;;3.63;;
20084;SDS011;10202;48.474;9.138;2023-03-17T03:01:28;5.57;;;3.40;;
20084;SDS011;10202;48.474;9.138;2023-03-17T03:03:55;4.77;;;3.23;;
20084;SDS011;10202;48.474;9.138;2023-03-17T03:06:22;5.43;;;3.33;;
20084;SDS011;10202;48.474;9.138;2023-03-17T03:08:50;4.93;;;3.27;;
20084;SDS011;10202;48.474;9.138;2023-03-17T03:11:18;4.87;;;3.27;;
20084;SDS011;10202;48.474;9.138;2023-03-17T03:13:49;5.80;;;3.63;;
20084;SDS011;10202;48.474;9.138;2023-03-17T03:16:15;8.70;;;3.73;;
20084;SDS011;10202;48.474;9.138;2023-03-17T03:18:45;7.70;;;3.70;;
20084;SDS011;10202;48.474;9.138;2023-03-17T03:21:14;4.73;;;3.43;;
20084;SDS011;10202;48.474;9.138;2023-03-17T03:23:45;6.00;;;3.30;;
20084;SDS011;10202;48.474;9.138;2023-03-17T03:26:10;6.83;;;3.80;;
20084;SDS011;10202;48.474;9.138;2023-03-17T03:28:39;4.80;;;3.57;;
20084;SDS011;10202;48.474;9.138;2023-03-17T03:31:07;5.67;;;3.30;;
20084;SDS011;10202;48.474;9.138;2023-03-17T03:33:33;5.30;;;3.30;;
20084;SDS011;10202;48.474;9.138;2023-03-17T03:36:01;5.63;;;3.30;;
20084;SDS011;10202;48.474;9.138;2023-03-17T03:38:29;5.40;;;4.00;;
20084;SDS011;10202;48.474;9.138;2023-03-17T03:40:54;6.23;;;4.23;;
20084;SDS011;10202;48.474;9.138;2023-03-17T03:43:30;6.50;;;4.17;;
20084;SDS011;10202;48.474;9.138;2023-03-17T03:45:57;6.87;;;4.20;;
20084;SDS011;10202;48.474;9.138;2023-03-17T03:48:23;7.90;;;4.40;;
20084;SDS011;10202;48.474;9.138;2023-03-17T03:50:49;6.13;;;4.40;;
20084;SDS011;10202;48.474;9.138;2023-03-17T03:53:23;6.90;;;4.90;;
20084;SDS011;10202;48.474;9.138;2023-03-17T03:55:52;6.43;;;4.70;;
20084;SDS011;10202;48.474;9.138;2023-03-17T03:58:21;9.10;;;4.43;;
20084;SDS011;10202;48.474;9.138;2023-03-17T04:00:51;9.70;;;4.83;;
20084;SDS011;10202;48.474;9.138;2023-03-17T04:03:19;6.77;;;4.50;;
20084;SDS011;10202;48.474;9.138;2023-03-17T04:05:52;9.33;;;4.47;;
20084;SDS011;10202;48.474;9.138;2023-03-17T04:08:17;7.47;;;4.13;;
20084;SDS011;10202;48.474;9.138;2023-03-17T04:10:47;7.10;;;3.93;;
20084;SDS011;10202;48.474;9.138;2023-03-17T04:13:15;5.60;;;4.20;;
20084;SDS011;10202;48.474;9.138;2023-03-17T04:15:42;5.13;;;3.97;;
20084;SDS011;10202;48.474;9.138;2023-03-17T04:18:08;8.63;;;4.60;;
20084;SDS011;10202;48.474;9.138;2023-03-17T04:20:36;10.13;;;4.83;;
20084;SDS011;10202;48.474;9.138;2023-03-17T04:23:02;13.70;;;8.47;;
20084;SDS011;10202;48.474;9.138;2023-03-17T04:25:34;10.83;;;6.63;;
20084;SDS011;10202;48.474;9.138;2023-03-17T04:28:00;11.97;;;6.30;;
20084;SDS011;10202;48.474;9.138;2023-03-17T04:30:28;7.80;;;5.20;;
20084;SDS011;10202;48.474;9.138;2023-03-17T04:32:58;7.17;;;4.30;;
20084;SDS011;10202;48.474;9.138;2023-03-17T04:35:24;5.63;;;4.33;;
20084;SDS011;10202;48.474;9.138;2023-03-17T04:37:52;4.33;;;3.83;;
20084;SDS011;10202;48.474;9.138;2023-03-17T04:40:20;5.77;;;3.80;;
20084;SDS011;10202;48.474;9.138;2023-03-17T04:42:48;4.40;;;3.63;;
20084;SDS011;10202;48.474;9.138;2023-03-17T04:45:18;9.07;;;4.07;;
20084;SDS011;10202;48.474;9.138;2023-03-17T04:47:48;7.03;;;4.07;;
20084;SDS011;10202;48.474;9.138;2023-03-17T04:50:19;7.77;;;3.97;;
20084;SDS011;10202;48.474;9.138;2023-03-17T04:52:45;7.83;;;4.40;;
20084;SDS011;10202;48.474;9.138;2023-03-17T04:55:13;6.43;;;4.60;;
20084;SDS011;10202;48.474;9.138;2023-03-17T04:57:43;8.90;;;5.30;;
20084;SDS011;10202;48.474;9.138;2023-03-17T05:00:11;12.80;;;6.20;;
20084;SDS011;10202;48.474;9.138;2023-03-17T05:02:40;9.07;;;5.43;;
20084;SDS011;10202;48.474;9.138;2023-03-17T05:05:08;26.70;;;12.70;;
20084;SDS011;10202;48.474;9.138;2023-03-17T05:07:36;37.63;;;16.60;;
20084;SDS011;10202;48.474;9.138;2023-03-17T05:10:02;35.67;;;15.97;;
20084;SDS011;10202;48.474;9.138;2023-03-17T05:12:28;34.67;;;14.87;;
20084;SDS011;10202;48.474;9.138;2023-03-17T05:14:58;29.87;;;13.27;;
20084;SDS011;10202;48.474;9.138;2023-03-17T05:17:26;21.77;;;11.77;;
20084;SDS011;10202;48.474;9.138;2023-03-17T05:19:52;28.60;;;14.43;;
20084;SDS011;10202;48.474;9.138;2023-03-17T05:22:24;26.77;;;15.17;;
20084;SDS011;10202;48.474;9.138;2023-03-17T05:24:52;27.97;;;15.30;;
20084;SDS011;10202;48.474;9.138;2023-03-17T05:27:17;23.10;;;11.67;;
20084;SDS011;10202;48.474;9.138;2023-03-17T05:29:43;12.77;;;7.50;;
20084;SDS011;10202;48.474;9.138;2023-03-17T05:32:13;6.50;;;4.90;;
20084;SDS011;10202;48.474;9.138;2023-03-17T05:34:42;8.60;;;4.47;;
20084;SDS011;10202;48.474;9.138;2023-03-17T05:37:11;8.53;;;5.77;;
20084;SDS011;10202;48.474;9.138;2023-03-17T05:39:37;11.07;;;6.37;;
20084;SDS011;10202;48.474;9.138;2023-03-17T05:42:02;10.17;;;4.70;;
20084;SDS011;10202;48.474;9.138;2023-03-17T05:44:28;9.37;;;4.73;;
20084;SDS011;10202;48.474;9.138;2023-03-17T05:46:58;8.90;;;4.57;;
20084;SDS011;10202;48.474;9.138;2023-03-17T05:49:28;5.83;;;4.57;;
20084;SDS011;10202;48.474;9.138;2023-03-17T05:51:56;6.87;;;4.47;;
20084;SDS011;10202;48.474;9.138;2023-03-17T05:54:21;6.57;;;4.03;;
20084;SDS011;10202;48.474;9.138;2023-03-17T05:56:48;10.57;;;5.30;;
20084;SDS011;10202;48.474;9.138;2023-03-17T05:59:13;16.63;;;9.03;;
20084;SDS011;10202;48.474;9.138;2023-03-17T06:01:40;20.50;;;8.23;;
20084;SDS011;10202;48.474;9.138;2023-03-17T06:04:09;8.97;;;5.90;;
20084;SDS011;10202;48.474;9.138;2023-03-17T06:06:36;10.13;;;4.73;;
20084;SDS011;10202;48.474;9.138;2023-03-17T06:09:04;9.17;;;4.53;;
20084;SDS011;10202;48.474;9.138;2023-03-17T06:11:30;7.73;;;4.73;;
20084;SDS011;10202;48.474;9.138;2023-03-17T06:13:55;9.67;;;5.57;;
20084;SDS011;10202;48.474;9.138;2023-03-17T06:16:21;9.33;;;6.07;;
20084;SDS011;10202;48.474;9.138;2023-03-17T06:18:47;13.10;;;6.67;;
20084;SDS011;10202;48.474;9.138;2023-03-17T06:21:15;8.07;;;5.67;;
20084;SDS011;10202;48.474;9.138;2023-03-17T06:23:43;7.90;;;5.03;;
20084;SDS011;10202;48.474;9.138;2023-03-17T06:26:14;12.17;;;4.43;;
20084;SDS011;10202;48.474;9.138;2023-03-17T06:28:41;6.67;;;4.50;;
20084;SDS011;10202;48.474;9.138;2023-03-17T06:31:07;9.90;;;4.40;;
20084;SDS011;10202;48.474;9.138;2023-03-17T06:33:35;6.87;;;4.27;;
20084;SDS011;10202;48.474;9.138;2023-03-17T06:36:06;7.17;;;3.40;;
20084;SDS011;10202;48.474;9.138;2023-03-17T06:38:36;7.27;;;4.47;;
20084;SDS011;10202;48.474;9.138;2023-03-17T06:41:05;9.80;;;4.60;;
20084;SDS011;10202;48.474;9.138;2023-03-17T06:43:36;6.70;;;3.90;;
20084;SDS011;10202;48.474;9.138;2023-03-17T06:46:08;6.07;;;4.20;;
20084;SDS011;10202;48.474;9.138;2023-03-17T06:48:36;5.63;;;4.43;;
20084;SDS011;10202;48.474;9.138;2023-03-17T06:51:04;12.30;;;4.00;;
20084;SDS011;10202;48.474;9.138;2023-03-17T06:53:30;6.50;;;4.17;;
20084;SDS011;10202;48.474;9.138;2023-03-17T06:55:56;10.83;;;4.40;;
20084;SDS011;10202;48.474;9.138;2023-03-17T06:58:24;7.70;;;4.33;;
20084;SDS011;10202;48.474;9.138;2023-03-17T07:00:57;8.77;;;4.00;;
20084;SDS011;10202;48.474;9.138;2023-03-17T07:03:31;8.40;;;4.67;;
20084;SDS011;10202;48.474;9.138;2023-03-17T07:05:57;6.13;;;3.77;;
20084;SDS011;10202;48.474;9.138;2023-03-17T07:08:24;5.77;;;3.53;;
20084;SDS011;10202;48.474;9.138;2023-03-17T07:10:57;7.03;;;3.50;;
20084;SDS011;10202;48.474;9.138;2023-03-17T07:13:28;3.93;;;3.23;;
20084;SDS011;10202;48.474;9.138;2023-03-17T07:16:00;5.78;;;3.47;;
20084;SDS011;10202;48.474;9.138;2023-03-17T07:18:27;6.73;;;3.30;;
20084;SDS011;10202;48.474;9.138;2023-03-17T07:20:57;7.23;;;3.67;;
20084;SDS011;10202;48.474;9.138;2023-03-17T07:23:23;5.03;;;3.30;;
20084;SDS011;10202;48.474;9.138;2023-03-17T07:25:50;6.78;;;3.70;;
20084;SDS011;10202;48.474;9.138;2023-03-17T07:28:16;6.82;;;3.38;;
20084;SDS011;10202;48.474;9.138;2023-03-17T07:30:46;5.80;;;3.65;;
20084;SDS011;10202;48.474;9.138;2023-03-17T07:33:18;7.07;;;3.60;;
20084;SDS011;10202;48.474;9.138;2023-03-17T07:35:51;6.45;;;3.22;;
20084;SDS011;10202;48.474;9.138;2023-03-17T07:38:21;5.20;;;3.35;;
20084;SDS011;10202;48.474;9.138;2023-03-17T07:40:49;8.10;;;3.63;;
20084;SDS011;10202;48.474;9.138;2023-03-17T07:43:16;4.90;;;3.58;;
20084;SDS011;10202;48.474;9.138;2023-03-17T07:45:44;7.60;;;3.70;;
20084;SDS011;10202;48.474;9.138;2023-03-17T07:48:11;5.88;;;3.67;;
20084;SDS011;10202;48.474;9.138;2023-03-17T07:50:37;5.03;;;3.58;;
20084;SDS011;10202;48.474;9.138;2023-03-17T07:53:06;7.45;;;3.67;;
20084;SDS011;10202;48.474;9.138;2023-03-17T07:55:37;5.03;;;3.47;;
20084;SDS011;10202;48.474;9.138;2023-03-17T07:58:08;5.80;;;3.38;;
20084;SDS011;10202;48.474;9.138;2023-03-17T08:00:35;8.57;;;4.10;;
20084;SDS011;10202;48.474;9.138;2023-03-17T08:03:04;5.80;;;4.07;;
20084;SDS011;10202;48.474;9.138;2023-03-17T08:05:35;6.72;;;3.33;;
20084;SDS011;10202;48.474;9.138;2023-03-17T08:08:01;5.10;;;3.63;;
20084;SDS011;10202;48.474;9.138;2023-03-17T08:10:27;6.78;;;3.53;;
20084;SDS011;10202;48.474;9.138;2023-03-17T08:12:52;5.93;;;3.40;;
20084;SDS011;10202;48.474;9.138;2023-03-17T08:15:25;6.40;;;3.80;;
20084;SDS011;10202;48.474;9.138;2023-03-17T08:17:56;5.68;;;3.78;;
20084;SDS011;10202;48.474;9.138;2023-03-17T08:20:28;4.55;;;3.20;;
20084;SDS011;10202;48.474;9.138;2023-03-17T08:23:02;5.97;;;3.45;;
20084;SDS011;10202;48.474;9.138;2023-03-17T08:25:32;7.72;;;3.85;;
20084;SDS011;10202;48.474;9.138;2023-03-17T08:27:58;6.68;;;3.72;;
20084;SDS011;10202;48.474;9.138;2023-03-17T08:30:26;6.07;;;4.15;;
20084;SDS011;10202;48.474;9.138;2023-03-17T08:32:57;5.05;;;3.97;;
20084;SDS011;10202;48.474;9.138;2023-03-17T08:35:25;6.45;;;4.40;;
20084;SDS011;10202;48.474;9.138;2023-03-17T08:37:53;6.72;;;4.88;;
20084;SDS011;10202;48.474;9.138;2023-03-17T08:40:18;7.80;;;4.65;;
20084;SDS011;10202;48.474;9.138;2023-03-17T08:42:47;8.20;;;4.60;;
20084;SDS011;10202;48.474;9.138;2023-03-17T08:45:15;10.68;;;4.75;;
20084;SDS011;10202;48.474;9.138;2023-03-17T08:47:43;6.05;;;4.43;;
20084;SDS011;10202;48.474;9.138;2023-03-17T08:50:18;7.18;;;4.68;;
20084;SDS011;10202;48.474;9.138;2023-03-17T08:52:52;5.70;;;4.20;;
20084;SDS011;10202;48.474;9.138;2023-03-17T08:55:19;6.45;;;4.03;;
20084;SDS011;10202;48.474;9.138;2023-03-17T08:57:51;7.28;;;4.30;;
20084;SDS011;10202;48.474;9.138;2023-03-17T09:00:18;8.50;;;4.07;;
20084;SDS011;10202;48.474;9.138;2023-03-17T09:02:48;8.50;;;3.72;;
20084;SDS011;10202;48.474;9.138;2023-03-17T09:05:15;7.43;;;3.97;;
20084;SDS011;10202;48.474;9.138;2023-03-17T09:07:45;5.50;;;3.83;;
20084;SDS011;10202;48.474;9.138;2023-03-17T09:10:18;7.15;;;3.95;;
20084;SDS011;10202;48.474;9.138;2023-03-17T09:12:49;4.40;;;3.30;;
20084;SDS011;10202;48.474;9.138;2023-03-17T09:15:23;7.18;;;3.20;;
20084;SDS011;10202;48.474;9.138;2023-03-17T09:17:49;8.10;;;3.60;;
20084;SDS011;10202;48.474;9.138;2023-03-17T09:20:19;5.70;;;3.28;;
20084;SDS011;10202;48.474;9.138;2023-03-17T09:22:49;4.38;;;3.40;;
20084;SDS011;10202;48.474;9.138;2023-03-17T09:25:16;5.55;;;3.40;;
20084;SDS011;10202;48.474;9.138;2023-03-17T09:27:44;6.72;;;3.72;;
20084;SDS011;10202;48.474;9.138;2023-03-17T09:30:12;4.15;;;3.03;;
20084;SDS011;10202;48.474;9.138;2023-03-17T09:32:41;5.53;;;3.00;;
20084;SDS011;10202;48.474;9.138;2023-03-17T09:35:12;9.95;;;2.97;;
20084;SDS011;10202;48.474;9.138;2023-03-17T09:37:37;7.78;;;2.92;;
20084;SDS011;10202;48.474;9.138;2023-03-17T09:40:04;8.18;;;3.20;;
20084;SDS011;10202;48.474;9.138;2023-03-17T09:45:37;5.03;;;2.53;;
20084;SDS011;10202;48.474;9.138;2023-03-17T09:53:34;4.20;;;2.80;;
20084;SDS011;10202;48.474;9.138;2023-03-17T09:56:17;6.03;;;2.60;;
20084;SDS011;10202;48.474;9.138;2023-03-17T09:58:58;8.55;;;2.80;;
20084;SDS011;10202;48.474;9.138;2023-03-17T10:01:45;5.85;;;2.70;;
20084;SDS011;10202;48.474;9.138;2023-03-17T10:04:15;3.40;;;2.75;;
20084;SDS011;10202;48.474;9.138;2023-03-17T10:06:44;4.32;;;2.70;;
20084;SDS011;10202;48.474;9.138;2023-03-17T10:09:17;4.47;;;2.42;;
20084;SDS011;10202;48.474;9.138;2023-03-17T10:12:08;5.30;;;2.90;;
20084;SDS011;10202;48.474;9.138;2023-03-17T10:17:48;2.58;;;2.20;;
20084;SDS011;10202;48.474;9.138;2023-03-17T10:20:29;3.40;;;2.05;;
20084;SDS011;10202;48.474;9.138;2023-03-17T10:23:06;3.53;;;1.92;;
20084;SDS011;10202;48.474;9.138;2023-03-17T10:25:37;6.05;;;2.33;;
20084;SDS011;10202;48.474;9.138;2023-03-17T10:33:48;2.65;;;1.60;;
20084;SDS011;10202;48.474;9.138;2023-03-17T10:36:30;2.85;;;1.70;;
20084;SDS011;10202;48.474;9.138;2023-03-17T10:39:05;4.22;;;1.95;;
20084;SDS011;10202;48.474;9.138;2023-03-17T10:41:37;3.15;;;1.85;;
20084;SDS011;10202;48.474;9.138;2023-03-17T10:44:08;3.05;;;1.95;;
20084;SDS011;10202;48.474;9.138;2023-03-17T10:46:42;4.63;;;1.75;;
20084;SDS011;10202;48.474;9.138;2023-03-17T10:49:19;3.42;;;1.50;;
20084;SDS011;10202;48.474;9.138;2023-03-17T10:51:54;4.40;;;1.40;;
20084;SDS011;10202;48.474;9.138;2023-03-17T10:54:23;2.08;;;1.70;;
20084;SDS011;10202;48.474;9.138;2023-03-17T10:56:54;3.40;;;2.00;;
20084;SDS011;10202;48.474;9.138;2023-03-17T10:59:31;6.10;;;1.88;;
20084;SDS011;10202;48.474;9.138;2023-03-17T11:05:02;2.17;;;1.58;;
20084;SDS011;10202;48.474;9.138;2023-03-17T11:07:36;5.97;;;1.52;;
20084;SDS011;10202;48.474;9.138;2023-03-17T11:10:40;3.28;;;1.70;;
20084;SDS011;10202;48.474;9.138;2023-03-17T11:13:03;3.55;;;1.60;;
20084;SDS011;10202;48.474;9.138;2023-03-17T11:15:34;6.43;;;1.48;;
20084;SDS011;10202;48.474;9.138;2023-03-17T11:18:35;5.20;;;1.38;;
20084;SDS011;10202;48.474;9.138;2023-03-17T11:21:12;5.00;;;1.70;;
20084;SDS011;10202;48.474;9.138;2023-03-17T11:24:16;2.38;;;1.42;;
20084;SDS011;10202;48.474;9.138;2023-03-17T11:38:07;4.25;;;1.80;;
20084;SDS011;10202;48.474;9.138;2023-03-17T11:49:31;2.40;;;1.73;;
20084;SDS011;10202;48.474;9.138;2023-03-17T11:52:06;2.03;;;1.83;;
20084;SDS011;10202;48.474;9.138;2023-03-17T11:57:25;4.00;;;1.80;;
20084;SDS011;10202;48.474;9.138;2023-03-17T12:00:02;2.45;;;1.60;;
20084;SDS011;10202;48.474;9.138;2023-03-17T12:02:47;4.50;;;1.80;;
20084;SDS011;10202;48.474;9.138;2023-03-17T12:05:21;2.42;;;1.77;;
20084;SDS011;10202;48.474;9.138;2023-03-17T12:11:13;3.78;;;2.30;;
20084;SDS011;10202;48.474;9.138;2023-03-17T12:16:49;7.22;;;4.20;;
20084;SDS011;10202;48.474;9.138;2023-03-17T12:19:36;6.18;;;3.25;;
20084;SDS011;10202;48.474;9.138;2023-03-17T12:25:31;4.80;;;3.00;;
20084;SDS011;10202;48.474;9.138;2023-03-17T12:28:17;6.30;;;3.47;;
20084;SDS011;10202;48.474;9.138;2023-03-17T12:30:59;6.93;;;3.15;;
20084;SDS011;10202;48.474;9.138;2023-03-17T12:36:38;6.50;;;3.53;;
20084;SDS011;10202;48.474;9.138;2023-03-17T12:39:13;8.15;;;3.40;;
20084;SDS011;10202;48.474;9.138;2023-03-17T12:59:02;6.22;;;2.95;;
20084;SDS011;10202;48.474;9.138;2023-03-17T13:07:07;4.40;;;2.60;;
20084;SDS011;10202;48.474;9.138;2023-03-17T13:14:59;3.17;;;2.30;;
20084;SDS011;10202;48.474;9.138;2023-03-17T13:19:56;4.03;;;2.28;;
20084;SDS011;10202;48.474;9.138;2023-03-17T13:35:37;8.20;;;5.00;;
20084;SDS011;10202;48.474;9.138;2023-03-17T13:48:49;12.63;;;6.97;;
20084;SDS011;10202;48.474;9.138;2023-03-17T13:54:08;9.23;;;4.43;;
20084;SDS011;10202;48.474;9.138;2023-03-17T13:59:16;9.98;;;4.00;;
20084;SDS011;10202;48.474;9.138;2023-03-17T14:01:46;11.32;;;5.75;;
20084;SDS011;10202;48.474;9.138;2023-03-17T14:04:21;10.27;;;4.50;;
20084;SDS011;10202;48.474;9.138;2023-03-17T14:06:57;3.08;;;2.40;;
20084;SDS011;10202;48.474;9.138;2023-03-17T14:09:37;4.43;;;2.08;;
20084;SDS011;10202;48.474;9.138;2023-03-17T14:12:10;5.00;;;2.80;;
20084;SDS011;10202;48.474;9.138;2023-03-17T14:17:31;2.50;;;1.40;;
20084;SDS011;10202;48.474;9.138;2023-03-17T14:22:55;4.15;;;1.60;;
20084;SDS011;10202;48.474;9.138;2023-03-17T14:25:26;3.45;;;1.50;;
20084;SDS011;10202;48.474;9.138;2023-03-17T14:27:59;2.85;;;1.55;;
20084;SDS011;10202;48.474;9.138;2023-03-17T14:30:31;5.45;;;1.88;;
20084;SDS011;10202;48.474;9.138;2023-03-17T14:35:39;6.68;;;1.67;;
20084;SDS011;10202;48.474;9.138;2023-03-17T14:38:19;2.58;;;1.50;;
20084;SDS011;10202;48.474;9.138;2023-03-17T14:40:50;2.22;;;1.48;;
20084;SDS011;10202;48.474;9.138;2023-03-17T14:43:29;3.65;;;1.80;;
20084;SDS011;10202;48.474;9.138;2023-03-17T14:46:00;2.72;;;1.65;;
20084;SDS011;10202;48.474;9.138;2023-03-17T14:48:30;4.38;;;1.70;;
20084;SDS011;10202;48.474;9.138;2023-03-17T14:50:59;3.00;;;1.65;;
20084;SDS011;10202;48.474;9.138;2023-03-17T14:53:38;5.65;;;1.60;;
20084;SDS011;10202;48.474;9.138;2023-03-17T14:56:05;2.28;;;1.40;;
20084;SDS011;10202;48.474;9.138;2023-03-17T15:01:14;6.53;;;1.65;;
20084;SDS011;10202;48.474;9.138;2023-03-17T15:04:32;2.10;;;1.50;;
20084;SDS011;10202;48.474;9.138;2023-03-17T15:07:02;4.30;;;1.80;;
20084;SDS011;10202;48.474;9.138;2023-03-17T15:14:40;5.55;;;1.80;;
20084;SDS011;10202;48.474;9.138;2023-03-17T15:17:13;3.05;;;1.83;;
20084;SDS011;10202;48.474;9.138;2023-03-17T15:19:51;4.97;;;2.28;;
20084;SDS011;10202;48.474;9.138;2023-03-17T15:22:37;2.78;;;1.77;;
20084;SDS011;10202;48.474;9.138;2023-03-17T15:27:51;4.60;;;2.00;;
20084;SDS011;10202;48.474;9.138;2023-03-17T15:30:22;4.68;;;2.33;;
20084;SDS011;10202;48.474;9.138;2023-03-17T15:32:52;4.43;;;2.05;;
20084;SDS011;10202;48.474;9.138;2023-03-17T15:35:30;2.75;;;1.83;;
20084;SDS011;10202;48.474;9.138;2023-03-17T15:37:58;3.63;;;1.90;;
20084;SDS011;10202;48.474;9.138;2023-03-17T15:40:24;2.83;;;1.80;;
20084;SDS011;10202;48.474;9.138;2023-03-17T15:42:52;7.57;;;1.85;;
20084;SDS011;10202;48.474;9.138;2023-03-17T15:45:20;4.43;;;2.35;;
20084;SDS011;10202;48.474;9.138;2023-03-17T15:47:48;1.63;;;1.52;;
20084;SDS011;10202;48.474;9.138;2023-03-17T15:52:52;6.55;;;1.88;;
20084;SDS011;10202;48.474;9.138;2023-03-17T15:55:21;5.05;;;2.40;;
20084;SDS011;10202;48.474;9.138;2023-03-17T15:57:48;8.35;;;2.50;;
20084;SDS011;10202;48.474;9.138;2023-03-17T16:00:16;5.30;;;2.20;;
20084;SDS011;10202;48.474;9.138;2023-03-17T16:02:49;3.03;;;1.58;;
20084;SDS011;10202;48.474;9.138;2023-03-17T16:05:22;2.10;;;1.70;;
20084;SDS011;10202;48.474;9.138;2023-03-17T16:07:54;1.85;;;1.10;;
20084;SDS011;10202;48.474;9.138;2023-03-17T16:10:26;4.35;;;1.40;;
20084;SDS011;10202;48.474;9.138;2023-03-17T16:12:54;1.38;;;1.08;;
20084;SDS011;10202;48.474;9.138;2023-03-17T16:15:24;2.03;;;0.90;;
20084;SDS011;10202;48.474;9.138;2023-03-17T16:18:05;1.63;;;1.00;;
20084;SDS011;10202;48.474;9.138;2023-03-17T16:20:40;2.03;;;0.93;;
20084;SDS011;10202;48.474;9.138;2023-03-17T16:25:50;1.50;;;1.00;;
20084;SDS011;10202;48.474;9.138;2023-03-17T16:28:17;3.40;;;1.40;;
20084;SDS011;10202;48.474;9.138;2023-03-17T16:30:52;2.35;;;1.08;;
20084;SDS011;10202;48.474;9.138;2023-03-17T16:33:25;5.03;;;1.83;;
20084;SDS011;10202;48.474;9.138;2023-03-17T16:35:55;5.05;;;1.30;;
20084;SDS011;10202;48.474;9.138;2023-03-17T16:38:24;18.70;;;2.47;;
20084;SDS011;10202;48.474;9.138;2023-03-17T16:40:53;5.50;;;1.40;;
20084;SDS011;10202;48.474;9.138;2023-03-17T16:45:54;2.22;;;1.15;;
20084;SDS011;10202;48.474;9.138;2023-03-17T16:48:23;2.90;;;1.95;;
20084;SDS011;10202;48.474;9.138;2023-03-17T16:50:52;2.42;;;1.73;;
20084;SDS011;10202;48.474;9.138;2023-03-17T16:53:20;4.55;;;1.92;;
20084;SDS011;10202;48.474;9.138;2023-03-17T16:55:46;4.82;;;1.70;;
20084;SDS011;10202;48.474;9.138;2023-03-17T17:00:59;4.55;;;1.63;;
20084;SDS011;10202;48.474;9.138;2023-03-17T17:03:36;3.08;;;1.27;;
20084;SDS011;10202;48.474;9.138;2023-03-17T17:06:05;1.05;;;0.98;;
20084;SDS011;10202;48.474;9.138;2023-03-17T17:08:32;2.90;;;1.30;;
20084;SDS011;10202;48.474;9.138;2023-03-17T17:11:06;5.65;;;1.58;;
20084;SDS011;10202;48.474;9.138;2023-03-17T17:13:37;4.22;;;1.80;;
20084;SDS011;10202;48.474;9.138;2023-03-17T17:16:15;3.20;;;1.60;;
20084;SDS011;10202;48.474;9.138;2023-03-17T17:18:49;4.03;;;1.10;;
20084;SDS011;10202;48.474;9.138;2023-03-17T17:21:19;3.10;;;1.40;;
20084;SDS011;10202;48.474;9.138;2023-03-17T17:23:47;2.67;;;1.40;;
20084;SDS011;10202;48.474;9.138;2023-03-17T17:26:15;1.38;;;1.20;;
20084;SDS011;10202;48.474;9.138;2023-03-17T17:28:46;5.93;;;1.60;;
20084;SDS011;10202;48.474;9.138;2023-03-17T17:31:14;3.53;;;1.48;;
20084;SDS011;10202;48.474;9.138;2023-03-17T17:33:42;3.88;;;1.80;;
20084;SDS011;10202;48.474;9.138;2023-03-17T17:36:11;3.03;;;1.90;;
20084;SDS011;10202;48.474;9.138;2023-03-17T17:38:42;5.18;;;1.90;;
20084;SDS011;10202;48.474;9.138;2023-03-17T17:41:10;4.18;;;2.28;;